Time;durP1;ratioP1;P1;durP2;ratioP2;P2;SDS_P1;SDS_P2;PMS_P1;PMS_P2;Temp;Humidity;BMP_temperature;BMP_pressure;BME280_temperature;BME280_humidity;BME280_pressure;Samples;Min_cycle;Max_cycle;Signal;HPM_P1;HPM_P2
2022/12/05 00:00:27;;;;;;;7.03;1.92;;;26.80;99.90;;;;;;5074477;28;20659;-81
2022/12/05 00:02:58;;;;;;;7.00;1.73;;;26.80;99.90;;;;;;5067982;28;20246;-81
2022/12/05 00:05:28;;;;;;;4.38;1.60;;;26.90;99.90;;;;;;5075690;28;20282;-81
2022/12/05 00:08:00;;;;;;;9.13;1.70;;;27.00;99.90;;;;;;5075758;28;20202;-82
2022/12/05 00:10:33;;;;;;;6.53;1.80;;;27.10;99.90;;;;;;5061812;28;20243;-80
2022/12/05 00:13:04;;;;;;;8.95;2.05;;;27.10;99.90;;;;;;5062911;28;20257;-81
2022/12/05 00:15:38;;;;;;;6.10;2.10;;;27.10;99.90;;;;;;5073335;28;20198;-80
2022/12/05 00:18:08;;;;;;;8.93;1.70;;;27.20;99.90;;;;;;5073910;28;20235;-81
2022/12/05 00:20:45;;;;;;;5.93;1.73;;;27.20;99.90;;;;;;5073967;28;20282;-80
2022/12/05 00:23:16;;;;;;;8.20;1.63;;;27.30;99.90;;;;;;5073999;28;20286;-80
2022/12/05 00:25:49;;;;;;;7.90;2.00;;;27.40;99.90;;;;;;5074402;28;20203;-80
2022/12/05 00:28:20;;;;;;;6.07;1.83;;;27.40;99.90;;;;;;5054060;28;20197;-81
2022/12/05 00:30:51;;;;;;;7.85;1.98;;;27.30;99.90;;;;;;5067464;28;20228;-80
2022/12/05 00:33:22;;;;;;;7.10;1.77;;;27.20;99.90;;;;;;5062386;28;20192;-81
2022/12/05 00:35:54;;;;;;;6.55;1.60;;;27.30;99.90;;;;;;5064247;28;20204;-80
2022/12/05 00:38:25;;;;;;;8.65;1.77;;;27.50;99.90;;;;;;5066093;28;20461;-81
2022/12/05 00:40:58;;;;;;;6.80;1.65;;;27.50;99.90;;;;;;5073345;28;20199;-81
2022/12/05 00:43:29;;;;;;;4.80;1.48;;;27.50;99.90;;;;;;5063311;28;20204;-80
2022/12/05 00:46:02;;;;;;;6.95;1.50;;;27.60;99.90;;;;;;5044890;28;20280;-80
2022/12/05 00:48:33;;;;;;;7.78;1.88;;;27.70;99.90;;;;;;5053081;28;20239;-80
2022/12/05 00:51:05;;;;;;;10.65;2.00;;;27.80;99.90;;;;;;5064176;28;20297;-80
2022/12/05 00:53:36;;;;;;;10.02;1.98;;;27.90;99.90;;;;;;5072911;28;20301;-81
2022/12/05 00:56:13;;;;;;;8.93;1.92;;;28.00;99.90;;;;;;5072029;28;20196;-81
2022/12/05 00:58:44;;;;;;;5.55;1.40;;;28.10;99.90;;;;;;5073876;28;20196;-79
2022/12/05 01:01:17;;;;;;;7.20;1.90;;;28.00;99.90;;;;;;5060236;28;20196;-80
2022/12/05 01:03:48;;;;;;;9.30;1.77;;;28.20;99.90;;;;;;5056236;28;20268;-80
2022/12/05 01:06:20;;;;;;;5.63;1.77;;;28.30;99.90;;;;;;5052467;28;20283;-80
2022/12/05 01:08:51;;;;;;;6.15;1.90;;;28.40;99.90;;;;;;5056921;28;20200;-81
2022/12/05 01:11:25;;;;;;;3.65;1.48;;;28.60;99.90;;;;;;5084260;28;20226;-81
2022/12/05 01:13:56;;;;;;;9.50;1.90;;;28.70;99.90;;;;;;5075617;28;20257;-80
2022/12/05 01:16:29;;;;;;;7.53;1.95;;;28.80;99.90;;;;;;5075738;28;20642;-80
2022/12/05 01:19:01;;;;;;;4.63;1.70;;;28.90;99.90;;;;;;5075540;28;20203;-80
2022/12/05 01:21:34;;;;;;;8.88;1.73;;;28.80;99.90;;;;;;5075486;28;20662;-81
2022/12/05 01:24:05;;;;;;;8.88;2.00;;;28.70;99.90;;;;;;5077039;28;20306;-80
2022/12/05 01:26:38;;;;;;;7.63;2.00;;;28.80;99.90;;;;;;5075415;28;20227;-81
2022/12/05 01:29:09;;;;;;;5.70;1.90;;;28.80;99.90;;;;;;5076237;28;20214;-80
2022/12/05 01:31:41;;;;;;;7.88;1.98;;;28.80;99.90;;;;;;5064724;28;20579;-81
2022/12/05 01:34:13;;;;;;;6.25;1.65;;;28.80;99.90;;;;;;5057926;28;20254;-81
2022/12/05 01:36:44;;;;;;;6.03;1.67;;;28.90;99.90;;;;;;5073903;28;20211;-79
2022/12/05 01:39:16;;;;;;;11.38;2.00;;;29.00;99.90;;;;;;5071473;28;20496;-80
2022/12/05 01:41:50;;;;;;;6.85;1.50;;;29.00;99.90;;;;;;5067146;28;20598;-80
2022/12/05 01:44:56;;;;;;;5.88;2.00;;;29.20;99.90;;;;;;5067395;28;20609;-80
2022/12/05 01:47:29;;;;;;;6.70;1.90;;;29.30;99.90;;;;;;5071770;28;20235;-81
2022/12/05 01:50:01;;;;;;;7.43;1.75;;;29.40;99.90;;;;;;5071752;28;20220;-80
2022/12/05 01:52:33;;;;;;;7.88;2.33;;;29.50;99.90;;;;;;5054269;28;20200;-80
2022/12/05 01:55:10;;;;;;;9.90;2.10;;;29.50;99.90;;;;;;5054273;28;20196;-81
2022/12/05 01:57:43;;;;;;;9.40;2.13;;;29.50;99.90;;;;;;5054186;28;20223;-80
2022/12/05 02:00:16;;;;;;;7.18;1.80;;;29.70;99.90;;;;;;5067219;28;20244;-80
2022/12/05 02:02:50;;;;;;;8.30;1.80;;;29.70;99.90;;;;;;5075245;28;20273;-81
2022/12/05 02:05:24;;;;;;;7.38;2.10;;;29.90;99.90;;;;;;5074991;28;20218;-81
2022/12/05 02:07:55;;;;;;;8.93;2.08;;;29.90;99.90;;;;;;5064735;28;20214;-80
2022/12/05 02:10:27;;;;;;;7.93;1.92;;;29.80;99.90;;;;;;5073006;28;20717;-81
2022/12/05 02:13:06;;;;;;;8.80;2.30;;;29.60;99.90;;;;;;5060193;28;20201;-81
2022/12/05 02:15:45;;;;;;;8.45;1.88;;;29.60;99.90;;;;;;5054627;28;20193;-80
2022/12/05 02:18:29;;;;;;;6.75;1.67;;;29.60;99.90;;;;;;5053555;28;20671;-80
2022/12/05 02:21:14;;;;;;;6.10;1.90;;;29.90;99.90;;;;;;5051881;28;20574;-80
2022/12/05 02:24:27;;;;;;;7.38;2.00;;;30.30;99.90;;;;;;5051545;28;20196;-80
2022/12/05 02:27:21;;;;;;;9.32;1.90;;;30.50;99.90;;;;;;5055679;28;20203;-81
2022/12/05 02:30:03;;;;;;;7.68;2.10;;;30.40;99.90;;;;;;5063987;28;20214;-80
2022/12/05 02:32:45;;;;;;;10.38;1.88;;;30.30;99.90;;;;;;5051523;28;20203;-80
2022/12/05 02:35:26;;;;;;;10.63;2.17;;;30.20;99.90;;;;;;5052396;28;20207;-81
2022/12/05 02:38:07;;;;;;;8.18;1.90;;;30.10;99.90;;;;;;5051382;28;20667;-80
2022/12/05 02:40:46;;;;;;;6.25;1.60;;;30.40;99.90;;;;;;5051324;28;20242;-80
2022/12/05 02:43:21;;;;;;;9.07;1.85;;;30.50;99.90;;;;;;5051985;28;20518;-81
2022/12/05 02:45:58;;;;;;;8.20;2.05;;;30.60;99.90;;;;;;5058103;28;20207;-81
2022/12/05 02:48:31;;;;;;;6.38;1.77;;;30.40;99.90;;;;;;5068023;28;20222;-82
2022/12/05 02:51:04;;;;;;;5.25;1.90;;;30.40;99.90;;;;;;5070844;28;20243;-82
2022/12/05 02:53:37;;;;;;;6.72;1.70;;;30.50;99.90;;;;;;5070850;28;20249;-81
2022/12/05 02:56:10;;;;;;;7.70;1.77;;;30.60;99.90;;;;;;5070969;28;20199;-80
2022/12/05 02:58:45;;;;;;;5.85;1.70;;;30.80;99.90;;;;;;5069992;28;20246;-81
2022/12/05 03:01:20;;;;;;;5.75;1.92;;;30.90;99.90;;;;;;5069909;28;20286;-81
2022/12/05 03:03:51;;;;;;;10.77;2.25;;;31.10;99.90;;;;;;5068205;28;20196;-81
2022/12/05 03:06:27;;;;;;;7.38;1.67;;;31.20;99.90;;;;;;5071155;28;20199;-79
2022/12/05 03:09:01;;;;;;;7.47;1.60;;;31.30;99.90;;;;;;5070601;28;20252;-79
2022/12/05 03:11:37;;;;;;;9.70;1.70;;;31.40;99.90;;;;;;5070517;28;20226;-80
2022/12/05 03:14:14;;;;;;;5.13;1.90;;;31.50;99.90;;;;;;5070316;28;20203;-80
2022/12/05 03:16:51;;;;;;;8.10;1.77;;;31.70;99.90;;;;;;5063365;28;20204;-81
2022/12/05 03:19:26;;;;;;;6.78;1.60;;;31.80;99.90;;;;;;5053006;28;20208;-81
2022/12/05 03:22:01;;;;;;;7.78;1.50;;;31.80;99.90;;;;;;5068796;28;20290;-81
2022/12/05 03:24:33;;;;;;;7.35;2.13;;;31.70;99.90;;;;;;5070140;28;20206;-81
2022/12/05 03:27:11;;;;;;;6.57;1.63;;;31.30;99.90;;;;;;5070425;28;20196;-78
2022/12/05 03:29:48;;;;;;;6.68;1.85;;;31.30;99.90;;;;;;5051309;28;20200;-80
2022/12/05 03:32:26;;;;;;;6.80;1.88;;;31.50;99.90;;;;;;5049957;28;20230;-82
2022/12/05 03:35:08;;;;;;;7.05;1.77;;;31.80;99.90;;;;;;5052400;28;20200;-80
2022/12/05 03:37:48;;;;;;;6.88;1.45;;;31.70;99.90;;;;;;5060911;28;20192;-81
2022/12/05 03:40:33;;;;;;;8.85;1.80;;;31.50;99.90;;;;;;5064697;28;20198;-80
2022/12/05 03:43:12;;;;;;;5.95;1.52;;;31.40;99.90;;;;;;5069968;28;20282;-81
2022/12/05 03:45:49;;;;;;;6.32;1.50;;;31.70;99.90;;;;;;5069860;28;20283;-81
2022/12/05 03:48:29;;;;;;;5.47;1.63;;;31.60;99.90;;;;;;5070173;28;20223;-81
2022/12/05 03:51:01;;;;;;;6.38;1.63;;;31.70;99.90;;;;;;5059419;28;20226;-80
2022/12/05 03:53:38;;;;;;;7.53;1.90;;;31.70;99.90;;;;;;5049769;28;20208;-81
2022/12/05 03:56:12;;;;;;;8.98;1.70;;;31.80;99.90;;;;;;5060342;28;20217;-80
2022/12/05 03:58:49;;;;;;;6.22;1.80;;;32.00;99.90;;;;;;5069465;28;20681;-81
2022/12/05 04:01:23;;;;;;;7.72;1.58;;;32.00;99.90;;;;;;5069856;28;20567;-82
2022/12/05 04:03:59;;;;;;;9.00;1.70;;;31.70;99.90;;;;;;5070296;28;20559;-80
2022/12/05 04:06:34;;;;;;;7.15;1.65;;;31.60;99.90;;;;;;5069596;28;20226;-82
2022/12/05 04:09:07;;;;;;;11.93;1.90;;;31.70;99.90;;;;;;5056692;28;20242;-81
2022/12/05 04:11:41;;;;;;;4.80;1.52;;;31.70;99.90;;;;;;5063136;28;20227;-82
2022/12/05 04:14:15;;;;;;;6.80;1.80;;;31.70;99.90;;;;;;5070199;28;20306;-81
2022/12/05 04:17:03;;;;;;;10.30;1.38;;;31.90;99.90;;;;;;5069759;28;20225;-81
2022/12/05 04:22:28;;;;;;;6.82;1.67;;;32.20;99.90;;;;;;5064295;28;20281;-81
2022/12/05 04:27:54;;;;;;;4.60;1.33;;;32.10;99.90;;;;;;5056079;28;20249;-82
2022/12/05 04:30:27;;;;;;;8.35;1.73;;;31.90;99.90;;;;;;5074331;28;20199;-81
2022/12/05 04:33:02;;;;;;;7.60;1.60;;;31.70;99.90;;;;;;5081839;28;20192;-80
2022/12/05 04:35:42;;;;;;;9.65;1.55;;;31.70;99.90;;;;;;5085614;28;20579;-82
2022/12/05 04:38:17;;;;;;;8.68;1.95;;;31.80;99.90;;;;;;5072256;28;20216;-81
2022/12/05 04:40:54;;;;;;;7.25;1.73;;;31.80;99.90;;;;;;5065060;28;20666;-80
2022/12/05 04:43:27;;;;;;;7.85;1.95;;;31.90;99.90;;;;;;5068229;28;20685;-80
2022/12/05 04:46:01;;;;;;;8.90;1.85;;;31.70;99.90;;;;;;5073286;28;20204;-80
2022/12/05 04:48:33;;;;;;;6.78;1.77;;;31.60;99.90;;;;;;5073790;28;20238;-81
2022/12/05 04:51:09;;;;;;;9.15;1.70;;;31.80;99.90;;;;;;5074139;28;20232;-82
2022/12/05 04:53:43;;;;;;;10.07;1.90;;;31.90;99.90;;;;;;5072719;28;20235;-81
2022/12/05 04:56:18;;;;;;;12.27;1.88;;;31.40;99.90;;;;;;5056356;28;20288;-81
2022/12/05 04:58:49;;;;;;;5.22;1.50;;;30.60;99.90;;;;;;5061989;28;20230;-80
2022/12/05 05:01:23;;;;;;;10.00;1.70;;;30.20;99.90;;;;;;5073747;28;20222;-78
2022/12/05 05:03:59;;;;;;;7.97;1.67;;;29.80;99.90;;;;;;5072657;28;20203;-80
2022/12/05 05:06:32;;;;;;;6.40;1.67;;;29.50;99.90;;;;;;5073697;28;20187;-81
2022/12/05 05:09:02;;;;;;;9.48;1.70;;;29.40;99.90;;;;;;5064873;28;20664;-81
2022/12/05 05:11:36;;;;;;;6.75;1.70;;;29.20;99.90;;;;;;5051427;28;20282;-81
2022/12/05 05:14:08;;;;;;;4.82;1.60;;;28.90;99.90;;;;;;5054670;28;20283;-81
2022/12/05 05:16:40;;;;;;;11.68;1.70;;;28.60;99.90;;;;;;5053400;28;20206;-81
2022/12/05 05:19:12;;;;;;;7.40;1.88;;;28.40;99.90;;;;;;5053632;28;20642;-81
2022/12/05 05:21:47;;;;;;;6.18;1.50;;;28.00;99.90;;;;;;5052418;28;20247;-81
2022/12/05 05:24:20;;;;;;;5.18;1.58;;;27.90;99.90;;;;;;5056545;28;20215;-80
2022/12/05 05:26:52;;;;;;;7.43;1.90;;;27.80;99.90;;;;;;5071662;28;20196;-80
2022/12/05 05:29:23;;;;;;;7.65;2.00;;;27.70;99.90;;;;;;5073084;28;20788;-81
2022/12/05 05:31:53;;;;;;;7.63;2.15;;;27.50;99.90;;;;;;5072194;28;20686;-81
2022/12/05 05:34:27;;;;;;;30.75;11.55;;;27.20;99.90;;;;;;5052726;28;20651;-81
2022/12/05 05:37:00;;;;;;;21.92;9.27;;;27.10;99.90;;;;;;5067863;28;20204;-81
2022/12/05 05:39:30;;;;;;;10.93;4.10;;;26.90;99.90;;;;;;5071273;28;20206;-82
2022/12/05 05:42:01;;;;;;;8.02;2.33;;;26.70;99.90;;;;;;5064171;28;20200;-82
2022/12/05 05:44:32;;;;;;;7.47;2.50;;;26.50;99.90;;;;;;5073900;28;20259;-81
2022/12/05 05:47:03;;;;;;;13.88;4.80;;;26.40;99.90;;;;;;5075842;28;20266;-82
2022/12/05 05:49:35;;;;;;;23.45;8.75;;;26.70;99.90;;;;;;5072146;28;20236;-80
2022/12/05 05:52:07;;;;;;;8.98;3.67;;;26.90;99.90;;;;;;5071746;28;20315;-80
2022/12/05 05:54:38;;;;;;;8.13;2.10;;;27.50;99.90;;;;;;5052850;28;20212;-81
2022/12/05 05:57:09;;;;;;;2.53;1.23;;;28.60;99.90;;;;;;5064895;28;20263;-81
2022/12/05 05:59:41;;;;;;;3.63;1.75;;;29.70;99.90;;;;;;5072961;28;20203;-81
2022/12/05 06:02:12;;;;;;;4.20;1.40;;;30.70;99.90;;;;;;5073218;28;20200;-82
2022/12/05 06:04:43;;;;;;;5.30;1.40;;;31.50;99.90;;;;;;5069446;28;20267;-81
2022/12/05 06:07:16;;;;;;;5.15;1.70;;;32.00;99.90;;;;;;5070828;28;20208;-82
2022/12/05 06:09:48;;;;;;;4.10;1.30;;;31.70;99.90;;;;;;5077778;28;20284;-84
2022/12/05 06:12:19;;;;;;;3.92;1.20;;;30.90;99.90;;;;;;5083383;28;20234;-81
2022/12/05 06:14:58;;;;;;;3.17;1.33;;;30.50;99.90;;;;;;5074501;28;20192;-82
2022/12/05 06:17:29;;;;;;;3.97;1.20;;;30.10;99.90;;;;;;5083913;28;20263;-80
2022/12/05 06:20:00;;;;;;;5.10;1.42;;;29.60;99.90;;;;;;5077870;28;20547;-82
2022/12/05 06:22:33;;;;;;;4.60;1.40;;;29.30;99.90;;;;;;5087994;28;20274;-81
2022/12/05 06:25:04;;;;;;;6.10;1.60;;;28.80;99.90;;;;;;5067229;28;20282;-81
2022/12/05 06:27:35;;;;;;;7.50;1.70;;;28.70;99.90;;;;;;5075261;28;20210;-80
2022/12/05 06:30:06;;;;;;;4.50;1.25;;;28.70;99.90;;;;;;5065557;28;20286;-80
2022/12/05 06:32:37;;;;;;;3.38;1.30;;;28.70;99.90;;;;;;5075606;28;20223;-80
2022/12/05 06:35:14;;;;;;;5.50;1.40;;;29.20;99.90;;;;;;5080156;28;20290;-81
2022/12/05 06:37:49;;;;;;;4.43;1.50;;;30.00;99.90;;;;;;5086154;28;20199;-80
2022/12/05 06:40:21;;;;;;;3.83;1.50;;;30.70;99.90;;;;;;5069482;28;20283;-81
2022/12/05 06:42:52;;;;;;;6.13;1.77;;;31.50;99.90;;;;;;5066999;28;20326;-81
2022/12/05 06:45:23;;;;;;;6.32;1.90;;;31.70;99.90;;;;;;5072874;28;20205;-81
2022/12/05 06:47:55;;;;;;;7.18;1.67;;;32.10;99.90;;;;;;5083559;28;20293;-82
2022/12/05 06:50:26;;;;;;;10.25;1.98;;;32.50;99.90;;;;;;5077059;28;20206;-82
2022/12/05 06:53:00;;;;;;;5.80;1.80;;;33.00;99.90;;;;;;5083924;28;20342;-80
2022/12/05 06:55:31;;;;;;;5.30;1.90;;;32.60;99.90;;;;;;5087150;28;20202;-81
2022/12/05 06:58:02;;;;;;;6.25;1.60;;;31.80;99.90;;;;;;5078157;28;20326;-81
2022/12/05 07:03:19;;;;;;;6.10;1.70;;;30.20;99.90;;;;;;5079211;28;20680;-81
2022/12/05 07:05:50;;;;;;;7.32;2.05;;;29.50;99.90;;;;;;5074886;28;20234;-80
2022/12/05 07:08:23;;;;;;;5.78;1.80;;;29.20;99.90;;;;;;5084148;28;20206;-80
2022/12/05 07:10:56;;;;;;;6.40;1.55;;;28.80;99.90;;;;;;5086178;28;20207;-81
2022/12/05 07:13:28;;;;;;;4.25;1.55;;;28.50;99.90;;;;;;5079496;28;20682;-81
2022/12/05 07:15:59;;;;;;;6.53;1.70;;;28.10;99.90;;;;;;5080348;28;20320;-81
2022/12/05 07:18:30;;;;;;;3.88;1.30;;;27.90;99.90;;;;;;5075667;28;20206;-79
2022/12/05 07:21:02;;;;;;;6.60;1.48;;;27.70;99.90;;;;;;5079625;28;20208;-79
2022/12/05 07:23:35;;;;;;;7.15;1.70;;;27.70;99.90;;;;;;5071998;28;20227;-81
2022/12/05 07:26:08;;;;;;;5.35;1.58;;;27.50;99.90;;;;;;5069004;28;20196;-81
2022/12/05 07:28:39;;;;;;;5.70;1.70;;;27.50;99.90;;;;;;5081150;28;20199;-81
2022/12/05 07:31:14;;;;;;;7.68;1.65;;;27.30;99.90;;;;;;5079218;28;20231;-81
2022/12/05 07:33:45;;;;;;;7.93;2.15;;;27.30;99.90;;;;;;5074377;28;20697;-80
2022/12/05 07:36:18;;;;;;;4.68;1.45;;;27.20;99.90;;;;;;5074481;28;20276;-80
2022/12/05 07:38:55;;;;;;;7.38;1.70;;;27.20;99.90;;;;;;5077578;28;20555;-80
2022/12/05 07:41:27;;;;;;;4.80;1.40;;;27.20;99.90;;;;;;5075238;28;20286;-80
2022/12/05 07:43:59;;;;;;;7.78;1.75;;;27.70;99.90;;;;;;5071466;28;20447;-80
2022/12/05 07:46:31;;;;;;;5.10;1.73;;;27.80;99.90;;;;;;5076337;28;20981;-81
2022/12/05 07:49:03;;;;;;;8.40;1.70;;;27.80;99.90;;;;;;5063260;28;20275;-81
2022/12/05 07:51:36;;;;;;;8.77;1.90;;;27.70;99.90;;;;;;5070832;28;20255;-81
2022/12/05 07:54:09;;;;;;;6.80;1.60;;;27.60;99.90;;;;;;5077197;28;20221;-81
2022/12/05 07:56:40;;;;;;;7.20;1.65;;;27.50;99.90;;;;;;5075018;28;20251;-79
2022/12/05 07:59:10;;;;;;;7.32;1.98;;;27.50;99.90;;;;;;5082449;28;20191;-80
2022/12/05 08:01:41;;;;;;;6.38;1.88;;;27.30;99.90;;;;;;5074783;28;20580;-79
2022/12/05 08:04:12;;;;;;;4.97;1.80;;;27.20;99.90;;;;;;5073966;28;20278;-80
2022/12/05 08:06:43;;;;;;;6.90;1.90;;;27.00;99.90;;;;;;5068313;28;20303;-80
2022/12/05 08:09:16;;;;;;;6.80;1.88;;;27.00;99.90;;;;;;5084937;28;20238;-80
2022/12/05 08:11:48;;;;;;;7.22;2.17;;;26.90;99.90;;;;;;5080940;28;20314;-79
2022/12/05 08:14:18;;;;;;;11.50;2.75;;;26.80;99.90;;;;;;5071959;28;20240;-80
2022/12/05 08:16:49;;;;;;;16.30;3.83;;;26.50;99.90;;;;;;5085790;28;20199;-81
2022/12/05 08:19:20;;;;;;;13.77;2.13;;;26.40;99.90;;;;;;5088235;28;20586;-80
2022/12/05 08:21:51;;;;;;;7.10;2.42;;;26.30;99.90;;;;;;5064559;28;20204;-80
2022/12/05 08:24:24;;;;;;;10.63;2.85;;;26.40;99.90;;;;;;5073404;28;20195;-79
2022/12/05 08:26:54;;;;;;;11.43;2.70;;;26.30;99.90;;;;;;5073791;28;20203;-79
2022/12/05 08:29:25;;;;;;;7.15;2.40;;;26.40;99.90;;;;;;5074422;28;20565;-80
2022/12/05 08:31:56;;;;;;;7.53;2.10;;;26.40;99.90;;;;;;5082611;28;20604;-80
2022/12/05 08:34:27;;;;;;;6.97;1.90;;;26.30;99.90;;;;;;5080689;28;20235;-80
2022/12/05 08:36:59;;;;;;;10.80;3.00;;;26.30;99.90;;;;;;5082805;28;20202;-81
2022/12/05 08:39:32;;;;;;;8.10;3.10;;;26.30;99.90;;;;;;5074967;28;20208;-80
2022/12/05 08:42:04;;;;;;;8.98;2.70;;;26.30;99.90;;;;;;5085264;28;20215;-80
2022/12/05 08:44:35;;;;;;;8.75;2.05;;;26.20;99.90;;;;;;5076325;28;20203;-81
2022/12/05 08:47:05;;;;;;;7.78;2.47;;;26.20;99.90;;;;;;5080416;28;20361;-81
2022/12/05 08:49:36;;;;;;;8.93;2.72;;;26.20;99.90;;;;;;5086738;28;20195;-80
2022/12/05 08:52:07;;;;;;;13.70;3.45;;;26.00;99.90;;;;;;5073370;28;20218;-81
2022/12/05 08:54:40;;;;;;;10.13;3.50;;;26.10;99.90;;;;;;5085732;28;20237;-81
2022/12/05 08:57:11;;;;;;;9.15;2.83;;;26.00;99.90;;;;;;5083264;28;20223;-80
2022/12/05 08:59:41;;;;;;;9.05;2.10;;;25.90;99.90;;;;;;5083504;28;20725;-81
2022/12/05 09:02:15;;;;;;;9.82;2.80;;;25.80;99.90;;;;;;5080071;28;20203;-80
2022/12/05 09:04:46;;;;;;;5.53;2.05;;;25.80;99.90;;;;;;5076776;28;20565;-81
2022/12/05 09:07:18;;;;;;;7.93;1.92;;;25.80;99.90;;;;;;5073985;28;20198;-80
2022/12/05 09:09:51;;;;;;;6.70;2.10;;;25.70;99.90;;;;;;5088167;28;20196;-80
2022/12/05 09:12:21;;;;;;;6.40;2.05;;;25.70;99.90;;;;;;5069677;28;20215;-80
2022/12/05 09:14:52;;;;;;;6.18;2.20;;;25.70;99.90;;;;;;5082165;28;20204;-80
2022/12/05 09:17:25;;;;;;;8.30;2.45;;;25.70;99.90;;;;;;5088485;28;20203;-80
2022/12/05 09:19:56;;;;;;;7.93;2.22;;;25.80;99.90;;;;;;5083810;28;20203;-81
2022/12/05 09:22:27;;;;;;;11.90;2.90;;;25.80;99.90;;;;;;5075260;28;20619;-81
2022/12/05 09:25:00;;;;;;;11.40;2.80;;;25.70;99.90;;;;;;5085269;28;20199;-81
2022/12/05 09:27:31;;;;;;;13.68;2.88;;;25.60;99.90;;;;;;5071223;28;20204;-79
2022/12/05 09:30:02;;;;;;;12.85;2.90;;;25.50;99.90;;;;;;5078163;28;20197;-81
2022/12/05 09:32:33;;;;;;;10.80;2.75;;;25.50;99.90;;;;;;5073549;28;20212;-81
2022/12/05 09:35:04;;;;;;;10.90;2.72;;;25.50;99.90;;;;;;5081478;28;20203;-81
2022/12/05 09:37:34;;;;;;;14.70;2.90;;;25.40;99.90;;;;;;5073984;28;20195;-79
2022/12/05 09:40:16;;;;;;;15.35;3.42;;;25.40;99.90;;;;;;5098412;28;20226;-80
2022/12/05 09:42:58;;;;;;;14.88;3.60;;;25.30;99.90;;;;;;5088555;28;20283;-81
2022/12/05 09:45:35;;;;;;;12.40;3.17;;;25.10;99.90;;;;;;5084042;28;20278;-80
2022/12/05 09:48:14;;;;;;;11.95;2.90;;;24.80;99.90;;;;;;5078482;28;20221;-80
2022/12/05 09:50:49;;;;;;;14.88;2.78;;;24.70;99.90;;;;;;5063894;28;20188;-80
2022/12/05 09:53:29;;;;;;;17.55;4.57;;;24.40;99.90;;;;;;5080420;28;20268;-81
2022/12/05 09:56:21;;;;;;;28.30;6.15;;;24.40;99.90;;;;;;5095073;28;20202;-82
2022/12/05 09:58:54;;;;;;;19.70;5.30;;;24.40;99.90;;;;;;5080390;28;20568;-82
2022/12/05 10:01:42;;;;;;;22.05;4.95;;;24.40;99.90;;;;;;5085697;28;20282;-82
2022/12/05 10:04:45;;;;;;;19.50;4.45;;;24.30;99.90;;;;;;5074527;28;20226;-82
2022/12/05 10:07:23;;;;;;;12.98;3.70;;;24.20;99.90;;;;;;5080634;28;20194;-82
2022/12/05 10:10:04;;;;;;;15.57;3.72;;;24.10;99.90;;;;;;5084834;28;20198;-82
2022/12/05 10:12:53;;;;;;;11.43;3.40;;;24.10;99.90;;;;;;5090970;28;20257;-81
2022/12/05 10:15:33;;;;;;;14.32;3.40;;;23.90;99.90;;;;;;5094926;28;20210;-83
2022/12/05 10:18:19;;;;;;;11.88;3.38;;;23.80;99.90;;;;;;5090921;28;20252;-82
2022/12/05 10:21:03;;;;;;;12.70;3.35;;;23.80;99.90;;;;;;5073876;28;20257;-83
2022/12/05 10:23:38;;;;;;;11.90;3.28;;;23.70;99.90;;;;;;5091650;28;20265;-81
2022/12/05 10:26:18;;;;;;;13.52;3.90;;;23.70;99.90;;;;;;5083286;28;20195;-82
2022/12/05 10:28:58;;;;;;;14.43;3.85;;;23.70;99.90;;;;;;5086778;28;20629;-82
2022/12/05 10:31:32;;;;;;;16.55;3.97;;;23.80;99.90;;;;;;5080408;28;20219;-82
2022/12/05 10:34:12;;;;;;;11.10;2.90;;;23.80;99.90;;;;;;5081268;28;20222;-80
2022/12/05 10:36:48;;;;;;;14.55;3.40;;;23.70;99.90;;;;;;5083750;28;20190;-81
2022/12/05 10:39:21;;;;;;;14.90;4.30;;;23.60;99.90;;;;;;5090626;28;20653;-81
2022/12/05 10:41:52;;;;;;;11.65;3.75;;;23.60;99.90;;;;;;5084817;28;20203;-81
2022/12/05 10:44:25;;;;;;;13.35;4.30;;;23.60;99.90;;;;;;5086199;28;20206;-82
2022/12/05 10:46:58;;;;;;;12.15;3.97;;;23.70;99.90;;;;;;5085486;28;20258;-80
2022/12/05 10:49:30;;;;;;;10.60;3.15;;;23.70;99.90;;;;;;5089567;28;20385;-80
2022/12/05 10:52:02;;;;;;;12.57;3.20;;;23.60;99.90;;;;;;5085643;28;20324;-81
2022/12/05 10:54:39;;;;;;;11.85;3.38;;;23.50;99.90;;;;;;5082639;28;20276;-81
2022/12/05 10:57:25;;;;;;;11.35;3.67;;;23.50;99.90;;;;;;5073728;28;20233;-81
2022/12/05 11:00:01;;;;;;;10.40;3.53;;;23.50;99.90;;;;;;5085478;28;20242;-81
2022/12/05 11:02:33;;;;;;;12.70;3.78;;;23.40;99.90;;;;;;5088779;28;20277;-80
2022/12/05 11:05:05;;;;;;;19.10;4.03;;;23.40;99.90;;;;;;5084136;28;20196;-81
2022/12/05 11:07:40;;;;;;;16.38;3.95;;;23.30;99.90;;;;;;5092216;28;20256;-81
2022/12/05 11:10:25;;;;;;;14.90;3.60;;;23.20;99.90;;;;;;5074743;28;20207;-80
2022/12/05 11:12:59;;;;;;;14.65;3.88;;;23.10;99.90;;;;;;5074556;28;20215;-80
2022/12/05 11:15:35;;;;;;;15.32;3.63;;;23.00;99.90;;;;;;5087741;28;20201;-80
2022/12/05 11:18:28;;;;;;;13.23;3.58;;;22.80;99.90;;;;;;5089432;28;20268;-81
2022/12/05 11:21:18;;;;;;;16.33;3.88;;;22.70;99.90;;;;;;5079578;28;20196;-81
2022/12/05 11:23:52;;;;;;;16.90;4.95;;;22.60;99.90;;;;;;5088560;28;20203;-80
2022/12/05 11:26:36;;;;;;;15.43;4.50;;;22.50;99.90;;;;;;5088812;28;20249;-79
2022/12/05 11:29:29;;;;;;;16.88;4.82;;;22.40;99.90;;;;;;5080575;28;20188;-80
2022/12/05 11:32:04;;;;;;;16.20;5.10;;;22.30;99.90;;;;;;5068382;28;20367;-81
2022/12/05 11:34:43;;;;;;;17.20;5.28;;;22.30;99.90;;;;;;5076685;28;20222;-79
2022/12/05 11:37:20;;;;;;;24.60;6.53;;;22.30;99.90;;;;;;5078793;28;20219;-79
2022/12/05 11:39:51;;;;;;;23.52;7.45;;;22.30;99.90;;;;;;5081632;28;20263;-80
2022/12/05 11:42:38;;;;;;;27.85;7.53;;;22.20;99.90;;;;;;5084525;28;20286;-80
2022/12/05 11:45:35;;;;;;;27.52;6.32;;;22.10;99.90;;;;;;5085001;28;20200;-81
2022/12/05 11:48:29;;;;;;;30.13;7.07;;;22.20;99.90;;;;;;5081138;28;20203;-81
2022/12/05 11:51:15;;;;;;;24.30;6.55;;;22.10;99.90;;;;;;5086600;28;20222;-80
2022/12/05 11:54:20;;;;;;;24.10;6.68;;;22.10;99.90;;;;;;5081668;28;20709;-80
2022/12/05 11:56:55;;;;;;;24.55;6.50;;;22.10;99.90;;;;;;5072919;28;20736;-81
2022/12/05 12:00:06;;;;;;;25.42;6.28;;;22.10;99.90;;;;;;5085194;28;20242;-80
2022/12/05 12:02:51;;;;;;;25.75;6.28;;;22.00;99.90;;;;;;5046246;28;20199;-82
2022/12/05 12:05:33;;;;;;;17.55;5.90;;;22.00;99.90;;;;;;5086460;28;20199;-81
2022/12/05 12:08:12;;;;;;;23.20;6.00;;;22.00;99.90;;;;;;5082981;28;20214;-81
2022/12/05 12:10:50;;;;;;;15.90;5.57;;;22.10;99.90;;;;;;5069514;28;20724;-81
2022/12/05 12:13:37;;;;;;;21.35;6.20;;;22.10;99.90;;;;;;5075431;28;20591;-80
2022/12/05 12:16:17;;;;;;;23.90;6.85;;;22.10;99.90;;;;;;5074748;28;20196;-81
2022/12/05 12:19:14;;;;;;;23.13;6.47;;;22.00;99.90;;;;;;5077772;28;20283;-81
2022/12/05 12:22:08;;;;;;;24.50;6.93;;;22.10;99.90;;;;;;5069515;28;20204;-80
2022/12/05 12:24:52;;;;;;;20.48;6.88;;;22.10;99.90;;;;;;5071691;28;20294;-81
2022/12/05 12:27:38;;;;;;;26.00;6.82;;;22.00;99.90;;;;;;5066888;28;20204;-81
2022/12/05 12:30:14;;;;;;;22.60;7.00;;;22.00;99.90;;;;;;5074392;28;20195;-81
2022/12/05 12:32:52;;;;;;;25.70;7.07;;;21.90;99.90;;;;;;5074213;28;20367;-81
2022/12/05 12:35:34;;;;;;;28.95;7.75;;;21.90;99.90;;;;;;5080092;28;20282;-81
2022/12/05 12:38:38;;;;;;;25.35;6.93;;;21.90;99.90;;;;;;5073699;28;20203;-80
2022/12/05 12:41:19;;;;;;;22.70;6.10;;;21.90;99.90;;;;;;5051274;28;20811;-81
2022/12/05 12:44:05;;;;;;;24.95;6.75;;;21.80;99.90;;;;;;5075917;28;20640;-81
2022/12/05 12:46:47;;;;;;;24.63;7.15;;;21.90;99.90;;;;;;5065486;28;20281;-80
2022/12/05 12:49:36;;;;;;;21.70;6.20;;;21.80;99.90;;;;;;5082020;28;20249;-79
2022/12/05 12:52:12;;;;;;;27.65;6.82;;;21.80;99.90;;;;;;5083122;28;20282;-79
2022/12/05 12:54:59;;;;;;;26.25;7.32;;;21.60;99.90;;;;;;5074195;28;20222;-81
2022/12/05 12:57:41;;;;;;;21.95;6.72;;;21.60;99.90;;;;;;5073047;28;20277;-80
2022/12/05 13:00:22;;;;;;;22.05;6.13;;;21.60;99.90;;;;;;5084152;28;20195;-81
2022/12/05 13:02:59;;;;;;;22.63;5.88;;;21.60;99.90;;;;;;5077803;28;20278;-81
2022/12/05 13:05:37;;;;;;;19.95;6.75;;;21.60;99.90;;;;;;5081822;28;20206;-78
2022/12/05 13:08:13;;;;;;;24.30;6.82;;;21.60;99.90;;;;;;5076410;28;20246;-79
2022/12/05 13:10:48;;;;;;;22.20;6.72;;;21.60;99.90;;;;;;5083922;28;20236;-79
2022/12/05 13:13:23;;;;;;;19.30;6.13;;;21.60;99.90;;;;;;5080890;28;20317;-79
2022/12/05 13:15:58;;;;;;;26.48;6.70;;;21.70;99.90;;;;;;5070703;28;20232;-80
2022/12/05 13:18:31;;;;;;;20.35;6.90;;;21.70;99.90;;;;;;5087456;28;20207;-80
2022/12/05 13:21:10;;;;;;;17.77;6.20;;;21.70;99.90;;;;;;5085449;28;20286;-79
2022/12/05 13:23:50;;;;;;;21.50;6.45;;;21.70;99.90;;;;;;5086155;28;20207;-79
2022/12/05 13:26:24;;;;;;;18.88;5.32;;;21.70;99.90;;;;;;5082025;28;20199;-78
2022/12/05 13:28:57;;;;;;;21.90;6.22;;;21.80;99.90;;;;;;5061296;28;20208;-79
2022/12/05 13:31:40;;;;;;;21.48;6.80;;;21.80;99.90;;;;;;5068927;28;20220;-79
2022/12/05 13:34:46;;;;;;;20.33;5.95;;;21.80;99.90;;;;;;5076388;28;20243;-79